createdAt,value
2023-04-17T00:00:35.196Z,11.33
2023-04-17T00:03:02.451Z,12.33
2023-04-17T00:05:31.713Z,10.87
2023-04-17T00:07:59.934Z,12.43
2023-04-17T00:10:27.354Z,11.77
2023-04-17T00:12:54.516Z,12.17
2023-04-17T00:15:21.768Z,11.50
2023-04-17T00:17:48.440Z,12.30
2023-04-17T00:20:15.507Z,11.87
2023-04-17T00:22:42.610Z,11.67
2023-04-17T00:25:12.769Z,12.27
2023-04-17T00:27:39.923Z,12.63
2023-04-17T00:30:07.818Z,12.43
2023-04-17T00:32:34.980Z,11.70
2023-04-17T00:35:02.094Z,12.03
2023-04-17T00:37:29.154Z,11.87
2023-04-17T00:39:56.246Z,12.43
2023-04-17T00:42:23.425Z,12.40
2023-04-17T00:44:50.466Z,11.33
2023-04-17T00:47:17.760Z,12.37
2023-04-17T00:49:44.975Z,11.47
2023-04-17T00:52:12.424Z,12.17
2023-04-17T00:54:39.578Z,12.03
2023-04-17T00:57:06.623Z,12.17
2023-04-17T00:59:33.897Z,12.43
2023-04-17T01:02:01.153Z,12.87
2023-04-17T01:04:28.330Z,13.30
2023-04-17T01:06:55.677Z,12.67
2023-04-17T01:09:22.741Z,12.40
2023-04-17T01:11:50.057Z,12.83
2023-04-17T01:14:17.126Z,12.93
2023-04-17T01:16:44.543Z,13.57
2023-04-17T01:19:14.453Z,13.00
2023-04-17T01:21:42.058Z,12.80
2023-04-17T01:24:09.406Z,14.80
2023-04-17T01:26:36.640Z,13.43
2023-04-17T01:29:04.159Z,13.27
2023-04-17T01:31:31.954Z,13.60
2023-04-17T01:34:00.506Z,13.83
2023-04-17T01:36:28.451Z,14.30
2023-04-17T01:38:55.602Z,13.90
2023-04-17T01:41:22.727Z,14.23
2023-04-17T01:43:50.239Z,14.43
2023-04-17T01:46:17.351Z,14.17
2023-04-17T01:48:44.515Z,15.33
2023-04-17T01:51:11.568Z,14.63
2023-04-17T01:53:39.617Z,14.43
2023-04-17T01:56:06.848Z,14.13
2023-04-17T01:58:33.974Z,14.23
2023-04-17T02:01:01.107Z,14.30
2023-04-17T02:03:28.497Z,14.23
2023-04-17T02:05:55.906Z,13.40
2023-04-17T02:08:23.035Z,14.27
2023-04-17T02:10:50.257Z,14.53
2023-04-17T02:13:17.389Z,14.97
2023-04-17T02:15:44.511Z,13.77
2023-04-17T02:18:13.473Z,13.97
2023-04-17T02:20:40.604Z,14.40
2023-04-17T02:23:07.838Z,14.63
2023-04-17T02:25:34.953Z,13.53
2023-04-17T02:28:03.801Z,13.43
2023-04-17T02:30:31.163Z,13.30
2023-04-17T02:32:59.132Z,13.27
2023-04-17T02:35:27.935Z,13.97
2023-04-17T02:37:56.549Z,14.50
2023-04-17T02:40:24.023Z,12.90
2023-04-17T02:42:56.673Z,14.30
2023-04-17T02:45:23.743Z,14.07
2023-04-17T02:47:50.849Z,13.30
2023-04-17T02:50:18.575Z,13.53
2023-04-17T02:53:08.996Z,13.07
2023-04-17T02:55:36.547Z,13.37
2023-04-17T02:58:03.666Z,13.70
2023-04-17T03:00:30.778Z,13.47
2023-04-17T03:02:58.017Z,14.23
2023-04-17T03:05:25.792Z,14.13
2023-04-17T03:07:54.609Z,13.60
2023-04-17T03:10:21.852Z,12.77
2023-04-17T03:12:49.356Z,13.30
2023-04-17T03:15:16.527Z,12.20
2023-04-17T03:17:43.904Z,12.83
2023-04-17T03:20:11.157Z,13.60
2023-04-17T03:22:38.372Z,13.13
2023-04-17T03:25:07.037Z,13.03
2023-04-17T03:27:44.634Z,13.60
2023-04-17T03:30:13.144Z,14.77
2023-04-17T03:32:42.918Z,13.90
2023-04-17T03:35:10.066Z,12.90
2023-04-17T03:37:37.117Z,13.17
2023-04-17T03:40:06.071Z,13.73
2023-04-17T03:42:33.122Z,13.43
2023-04-17T03:45:00.179Z,13.80
2023-04-17T03:47:28.484Z,14.20
2023-04-17T03:49:56.409Z,14.77
2023-04-17T03:52:24.447Z,13.70
2023-04-17T03:54:55.548Z,14.23
2023-04-17T03:57:22.627Z,13.90
2023-04-17T03:59:49.927Z,13.87
2023-04-17T04:02:18.016Z,14.27
2023-04-17T04:04:48.135Z,15.20
2023-04-17T04:07:15.754Z,14.40
2023-04-17T04:09:42.895Z,14.77
2023-04-17T04:12:10.491Z,14.53
2023-04-17T04:14:42.062Z,14.87
2023-04-17T04:17:10.236Z,13.83
2023-04-17T04:19:38.410Z,14.07
2023-04-17T04:22:06.967Z,13.97
2023-04-17T04:24:41.473Z,15.13
2023-04-17T04:27:09.230Z,14.80
2023-04-17T04:29:39.225Z,14.57
2023-04-17T04:32:09.706Z,14.50
2023-04-17T04:34:41.849Z,15.20
2023-04-17T04:37:08.967Z,15.07
2023-04-17T04:39:39.498Z,14.67
2023-04-17T04:42:09.938Z,14.50
2023-04-17T04:44:49.636Z,14.30
2023-04-17T04:47:19.955Z,14.03
2023-04-17T04:49:48.616Z,14.40
2023-04-17T04:52:18.819Z,13.90
2023-04-17T04:54:46.381Z,14.17
2023-04-17T04:57:14.613Z,14.17
2023-04-17T04:59:43.924Z,14.10
2023-04-17T05:02:33.899Z,13.50
2023-04-17T05:05:02.192Z,14.53
2023-04-17T05:07:31.878Z,14.50
2023-04-17T05:09:59.639Z,15.00
2023-04-17T05:12:28.089Z,15.17
2023-04-17T05:14:55.233Z,15.23
2023-04-17T05:17:22.821Z,15.63
2023-04-17T05:19:50.267Z,13.83
2023-04-17T05:22:17.888Z,13.93
2023-04-17T05:24:59.426Z,13.60
2023-04-17T05:27:27.218Z,13.67
2023-04-17T05:29:55.033Z,14.20
2023-04-17T05:32:22.452Z,14.73
2023-04-17T05:34:54.420Z,14.67
2023-04-17T05:37:25.478Z,13.37
2023-04-17T05:39:52.751Z,14.50
2023-04-17T05:42:19.798Z,14.20
2023-04-17T05:44:47.247Z,14.97
2023-04-17T05:47:14.324Z,15.07
2023-04-17T05:49:42.373Z,14.50
2023-04-17T05:52:09.872Z,14.77
2023-04-17T05:54:41.956Z,14.00
2023-04-17T05:57:09.410Z,14.00
2023-04-17T05:59:37.063Z,14.60
2023-04-17T06:02:04.730Z,12.80
2023-04-17T06:04:34.065Z,14.13
2023-04-17T06:07:02.932Z,12.27
2023-04-17T06:09:29.917Z,13.93
2023-04-17T06:11:57.001Z,12.93
2023-04-17T06:14:24.082Z,13.40
2023-04-17T06:16:51.281Z,13.47
2023-04-17T06:19:18.377Z,14.27
2023-04-17T06:21:45.732Z,13.33
2023-04-17T06:24:12.876Z,13.87
2023-04-17T06:26:45.662Z,13.07
2023-04-17T06:29:13.877Z,13.53
2023-04-17T06:31:41.515Z,13.60
2023-04-17T06:34:08.712Z,13.87
2023-04-17T06:36:41.003Z,13.23
2023-04-17T06:39:08.086Z,13.30
2023-04-17T06:41:35.425Z,13.23
2023-04-17T06:44:02.038Z,14.17
2023-04-17T06:46:44.089Z,13.23
2023-04-17T06:49:11.936Z,12.73
2023-04-17T06:51:39.434Z,12.77
2023-04-17T06:54:06.525Z,12.57
2023-04-17T06:56:33.534Z,13.13
2023-04-17T06:59:02.440Z,14.33
2023-04-17T07:01:31.389Z,12.47
2023-04-17T07:03:58.557Z,14.03
2023-04-17T07:06:25.158Z,13.73
2023-04-17T07:08:53.535Z,13.43
2023-04-17T07:11:22.493Z,12.80
2023-04-17T07:13:49.932Z,12.97
2023-04-17T07:16:17.013Z,13.10
2023-04-17T07:18:44.131Z,13.40
2023-04-17T07:21:11.193Z,12.87
2023-04-17T07:23:37.772Z,12.73
2023-04-17T07:26:04.803Z,11.40
2023-04-17T07:28:31.850Z,11.40
2023-04-17T07:30:58.866Z,11.40
2023-04-17T07:33:26.106Z,12.73
2023-04-17T07:35:53.886Z,12.00
2023-04-17T07:38:21.045Z,11.23
2023-04-17T07:40:47.668Z,11.73
2023-04-17T07:43:15.262Z,11.27
2023-04-17T07:45:42.496Z,10.33
2023-04-17T07:48:09.815Z,10.47
2023-04-17T07:50:36.967Z,11.10
2023-04-17T07:53:03.975Z,10.77
2023-04-17T07:55:31.131Z,11.60
2023-04-17T07:57:58.743Z,10.40
2023-04-17T08:00:26.210Z,10.23
2023-04-17T08:02:53.511Z,9.83
2023-04-17T08:05:20.985Z,10.07
2023-04-17T08:07:47.688Z,10.53
2023-04-17T08:10:14.784Z,9.13
2023-04-17T08:12:41.875Z,9.87
2023-04-17T08:15:09.437Z,9.97
2023-04-17T08:17:36.662Z,8.83
2023-04-17T08:20:11.814Z,9.13
2023-04-17T08:22:42.657Z,9.17
2023-04-17T08:25:10.201Z,9.23
2023-04-17T08:27:38.223Z,9.10
2023-04-17T08:30:06.932Z,8.33
2023-04-17T08:32:45.366Z,8.00
2023-04-17T08:35:14.187Z,8.57
2023-04-17T08:37:47.944Z,8.03
2023-04-17T08:40:16.869Z,7.40
2023-04-17T08:42:44.353Z,8.97
2023-04-17T08:45:12.521Z,7.33
2023-04-17T08:47:40.347Z,8.10
2023-04-17T08:50:12.732Z,7.70
2023-04-17T08:52:47.527Z,7.30
2023-04-17T08:55:16.554Z,6.40
2023-04-17T08:57:58.886Z,7.00
2023-04-17T09:00:39.586Z,7.03
2023-04-17T09:03:09.024Z,6.67
2023-04-17T09:05:37.101Z,6.70
2023-04-17T09:08:12.850Z,6.33
2023-04-17T09:10:42.077Z,6.90
2023-04-17T09:13:09.742Z,6.50
2023-04-17T09:15:37.422Z,5.40
2023-04-17T09:18:04.565Z,7.30
2023-04-17T09:20:32.508Z,6.23
2023-04-17T09:23:01.883Z,6.00
2023-04-17T09:25:29.125Z,6.43
2023-04-17T09:28:09.781Z,6.67
2023-04-17T09:30:38.028Z,5.37
2023-04-17T09:33:06.392Z,5.90
2023-04-17T09:35:33.751Z,6.37
2023-04-17T09:38:00.887Z,5.80
2023-04-17T09:40:36.106Z,5.07
2023-04-17T09:43:06.081Z,5.73
2023-04-17T09:45:40.026Z,5.80
2023-04-17T09:48:15.155Z,6.20
2023-04-17T09:50:42.290Z,5.63
2023-04-17T09:53:09.448Z,5.57
2023-04-17T09:55:37.864Z,6.00
2023-04-17T09:58:07.205Z,5.63
2023-04-17T10:00:34.393Z,7.27
2023-04-17T10:03:01.739Z,6.13
2023-04-17T10:05:30.057Z,6.40
2023-04-17T10:07:57.378Z,5.97
2023-04-17T10:10:33.639Z,5.97
2023-04-17T10:13:03.295Z,4.90
2023-04-17T10:15:30.913Z,5.10
2023-04-17T10:18:24.456Z,5.47
2023-04-17T10:20:53.297Z,5.17
2023-04-17T10:23:34.466Z,4.80
2023-04-17T10:26:24.768Z,5.50
2023-04-17T10:28:57.745Z,5.73
2023-04-17T10:32:03.333Z,6.10
2023-04-17T10:34:37.608Z,5.50
2023-04-17T10:37:05.101Z,5.20
2023-04-17T10:40:01.058Z,4.87
2023-04-17T10:42:30.141Z,5.07
2023-04-17T10:45:05.805Z,4.70
2023-04-17T10:47:34.310Z,5.73
2023-04-17T10:50:03.872Z,5.10
2023-04-17T10:52:40.044Z,5.70
2023-04-17T10:55:09.398Z,5.77
2023-04-17T10:57:58.219Z,5.60
2023-04-17T11:00:37.005Z,5.57
2023-04-17T11:03:05.734Z,5.43
2023-04-17T11:05:34.193Z,5.80
2023-04-17T11:08:01.619Z,5.17
2023-04-17T11:10:28.734Z,5.30
2023-04-17T11:12:56.671Z,5.77
2023-04-17T11:15:32.170Z,5.70
2023-04-17T11:18:00.144Z,5.20
2023-04-17T11:20:31.920Z,5.53
2023-04-17T11:23:03.453Z,5.13
2023-04-17T11:25:31.639Z,5.47
2023-04-17T11:27:59.116Z,6.10
2023-04-17T11:30:34.658Z,5.50
2023-04-17T11:33:06.192Z,6.77
2023-04-17T11:35:35.050Z,6.50
2023-04-17T11:38:14.188Z,5.83
2023-04-17T11:40:46.024Z,6.43
2023-04-17T11:43:13.637Z,5.90
2023-04-17T11:45:43.096Z,6.93
2023-04-17T11:48:14.981Z,6.37
2023-04-17T11:50:43.701Z,7.00
2023-04-17T11:53:14.500Z,5.70
2023-04-17T11:55:41.596Z,6.90
2023-04-17T11:58:10.266Z,6.57
2023-04-17T12:00:38.352Z,7.27
2023-04-17T12:03:31.160Z,6.93
2023-04-17T12:06:03.824Z,6.53
2023-04-17T12:08:31.478Z,6.47
2023-04-17T12:10:58.767Z,6.13
2023-04-17T12:13:26.245Z,6.80
2023-04-17T12:15:53.704Z,5.67
2023-04-17T12:18:20.808Z,6.40
2023-04-17T12:20:48.653Z,6.97
2023-04-17T12:23:16.462Z,6.13
2023-04-17T12:25:43.558Z,5.90
2023-04-17T12:28:10.195Z,6.43
2023-04-17T12:30:39.725Z,6.13
2023-04-17T12:33:07.127Z,5.33
2023-04-17T12:35:34.297Z,6.10
2023-04-17T12:38:00.923Z,6.30
2023-04-17T12:40:28.044Z,6.57
2023-04-17T12:42:55.651Z,6.03
2023-04-17T12:45:22.874Z,6.27
2023-04-17T12:47:50.124Z,5.90
2023-04-17T12:50:16.937Z,5.50
2023-04-17T12:52:44.059Z,6.80
2023-04-17T12:55:11.119Z,6.33
2023-04-17T12:57:38.256Z,6.33
2023-04-17T13:00:07.026Z,5.53
2023-04-17T13:02:34.298Z,6.53
2023-04-17T13:05:01.378Z,6.50
2023-04-17T13:07:29.014Z,6.10
2023-04-17T13:09:56.398Z,7.23
2023-04-17T13:12:23.564Z,6.60
2023-04-17T13:14:50.732Z,6.00
2023-04-17T13:17:17.890Z,6.13
2023-04-17T13:19:45.285Z,6.50
2023-04-17T13:22:12.378Z,5.37
2023-04-17T13:24:40.168Z,5.93
2023-04-17T13:27:07.259Z,5.90
2023-04-17T13:29:34.327Z,6.17
2023-04-17T13:32:01.867Z,5.70
2023-04-17T13:34:29.096Z,6.23
2023-04-17T13:36:56.641Z,6.47
2023-04-17T13:39:23.739Z,6.10
2023-04-17T13:41:50.835Z,5.73
2023-04-17T13:44:18.619Z,6.00
2023-04-17T13:46:46.056Z,6.27
2023-04-17T13:49:13.422Z,5.70
2023-04-17T13:51:40.615Z,5.60
2023-04-17T13:54:08.880Z,6.40
2023-04-17T13:56:36.061Z,6.57
2023-04-17T13:59:03.710Z,5.60
2023-04-17T14:01:30.831Z,6.07
2023-04-17T14:04:00.548Z,5.90
2023-04-17T14:06:32.430Z,6.03
2023-04-17T14:08:59.617Z,5.17
2023-04-17T14:11:26.794Z,4.90
2023-04-17T14:13:53.980Z,5.70
2023-04-17T14:16:21.196Z,5.30
2023-04-17T14:18:51.965Z,5.43
2023-04-17T14:21:18.758Z,5.00
2023-04-17T14:23:46.030Z,5.00
2023-04-17T14:26:13.255Z,5.47
2023-04-17T14:28:40.591Z,6.27
2023-04-17T14:31:07.979Z,6.50
2023-04-17T14:33:35.068Z,6.27
2023-04-17T14:36:02.610Z,6.60
2023-04-17T14:38:30.649Z,7.07
2023-04-17T14:40:57.683Z,7.27
2023-04-17T14:43:24.769Z,7.03
2023-04-17T14:45:51.572Z,6.87
2023-04-17T14:48:20.749Z,7.83
2023-04-17T14:50:47.971Z,7.67
2023-04-17T14:53:15.143Z,6.80
2023-04-17T14:55:42.654Z,7.70
2023-04-17T14:58:09.793Z,7.33
2023-04-17T15:00:38.218Z,6.43
2023-04-17T15:03:05.589Z,6.53
2023-04-17T15:05:32.680Z,7.20
2023-04-17T15:07:59.739Z,7.03
2023-04-17T15:10:28.655Z,6.33
2023-04-17T15:13:00.145Z,6.07
2023-04-17T15:15:28.507Z,6.13
2023-04-17T15:17:55.769Z,6.83
2023-04-17T15:20:25.078Z,6.73
2023-04-17T15:22:55.356Z,6.80
2023-04-17T15:25:23.576Z,7.03
2023-04-17T15:27:50.889Z,7.13
2023-04-17T15:30:17.976Z,7.10
2023-04-17T15:32:45.123Z,6.87
2023-04-17T15:35:12.250Z,6.97
2023-04-17T15:37:39.500Z,7.37
2023-04-17T15:40:07.778Z,6.37
2023-04-17T15:42:36.635Z,7.27
2023-04-17T15:45:03.854Z,7.10
2023-04-17T15:47:30.950Z,6.70
2023-04-17T15:49:58.055Z,6.97
2023-04-17T15:52:25.258Z,6.37
2023-04-17T15:54:52.416Z,6.73
2023-04-17T15:57:19.676Z,6.57
2023-04-17T15:59:46.325Z,6.50
2023-04-17T16:02:13.845Z,6.53
2023-04-17T16:04:42.988Z,6.83
2023-04-17T16:07:11.866Z,6.93
2023-04-17T16:09:39.695Z,5.93
2023-04-17T16:12:10.230Z,7.07
2023-04-17T16:14:37.717Z,6.37
2023-04-17T16:17:04.951Z,6.63
2023-04-17T16:19:32.182Z,6.47
2023-04-17T16:21:59.579Z,6.10
2023-04-17T16:24:26.890Z,6.67
2023-04-17T16:26:55.379Z,6.67
2023-04-17T16:29:22.460Z,6.30
2023-04-17T16:31:49.157Z,6.20
2023-04-17T16:34:16.288Z,6.23
2023-04-17T16:36:45.401Z,6.17
2023-04-17T16:39:12.995Z,5.80
2023-04-17T16:41:40.243Z,6.73
2023-04-17T16:44:07.373Z,6.10
2023-04-17T16:46:52.226Z,6.10
2023-04-17T16:49:21.068Z,6.63
2023-04-17T16:51:48.199Z,6.20
2023-04-17T16:54:15.408Z,6.20
2023-04-17T16:56:42.970Z,6.80
2023-04-17T16:59:10.134Z,6.57
2023-04-17T17:01:37.279Z,6.10
2023-04-17T17:04:04.555Z,6.37
2023-04-17T17:06:31.647Z,6.37
2023-04-17T17:08:59.615Z,6.50
2023-04-17T17:11:26.688Z,6.57
2023-04-17T17:13:53.787Z,6.50
2023-04-17T17:16:23.665Z,6.70
2023-04-17T17:18:51.025Z,6.03
2023-04-17T17:21:18.200Z,6.43
2023-04-17T17:23:45.240Z,5.80
2023-04-17T17:26:12.296Z,6.27
2023-04-17T17:28:39.442Z,5.97
2023-04-17T17:31:07.879Z,5.23
2023-04-17T17:33:35.928Z,6.47
2023-04-17T17:36:03.119Z,6.03
2023-04-17T17:38:32.351Z,6.00
2023-04-17T17:40:59.653Z,6.67
2023-04-17T17:43:28.076Z,6.27
2023-04-17T17:45:55.224Z,5.90
2023-04-17T17:48:22.393Z,6.03
2023-04-17T17:50:53.619Z,6.60
2023-04-17T17:53:23.511Z,5.60
2023-04-17T17:55:54.611Z,6.00
2023-04-17T17:58:21.795Z,6.10
2023-04-17T18:00:51.489Z,5.27
2023-04-17T18:03:18.983Z,5.93
2023-04-17T18:05:46.759Z,5.43
2023-04-17T18:08:14.087Z,5.80
2023-04-17T18:10:41.118Z,6.30
2023-04-17T18:13:08.219Z,5.37
2023-04-17T18:15:36.104Z,5.13
2023-04-17T18:18:03.275Z,5.30
2023-04-17T18:20:30.348Z,5.00
2023-04-17T18:22:57.533Z,5.57
2023-04-17T18:25:24.614Z,5.33
2023-04-17T18:27:51.679Z,5.33
2023-04-17T18:30:18.740Z,5.53
2023-04-17T18:32:46.131Z,4.97
2023-04-17T18:35:13.192Z,5.43
2023-04-17T18:37:43.137Z,5.83
2023-04-17T18:40:10.449Z,5.70
2023-04-17T18:42:37.550Z,5.63
2023-04-17T18:45:05.040Z,5.70
2023-04-17T18:47:32.272Z,5.43
2023-04-17T18:49:59.471Z,5.60
2023-04-17T18:52:26.847Z,6.13
2023-04-17T18:54:54.074Z,5.50
2023-04-17T18:57:21.605Z,5.83
2023-04-17T18:59:48.982Z,5.53
2023-04-17T19:02:16.043Z,5.70
2023-04-17T19:04:43.253Z,5.50
2023-04-17T19:07:09.881Z,5.80
2023-04-17T19:09:36.540Z,7.73
2023-04-17T19:12:03.761Z,6.60
2023-04-17T19:14:32.585Z,5.80
2023-04-17T19:16:59.712Z,5.77
2023-04-17T19:19:26.718Z,5.90
2023-04-17T19:21:53.743Z,6.13
2023-04-17T19:24:20.855Z,5.40
2023-04-17T19:26:47.883Z,5.70
2023-04-17T19:29:17.054Z,5.17
2023-04-17T19:31:44.436Z,4.93
2023-04-17T19:34:11.565Z,5.10
2023-04-17T19:36:38.684Z,4.40
2023-04-17T19:39:05.727Z,4.43
2023-04-17T19:41:32.791Z,4.40
2023-04-17T19:43:59.839Z,4.67
2023-04-17T19:46:28.585Z,4.77
2023-04-17T19:48:55.442Z,4.50
2023-04-17T19:51:22.566Z,4.67
2023-04-17T19:53:49.681Z,4.17
2023-04-17T19:56:16.734Z,4.20
2023-04-17T19:58:43.852Z,3.97
2023-04-17T20:01:11.090Z,4.20
2023-04-17T20:03:39.308Z,5.20
2023-04-17T20:06:07.244Z,4.90
2023-04-17T20:08:34.526Z,4.00
2023-04-17T20:11:01.584Z,4.03
2023-04-17T20:13:28.577Z,4.27
2023-04-17T20:15:55.835Z,4.93
2023-04-17T20:18:22.955Z,4.10
2023-04-17T20:20:50.071Z,4.20
2023-04-17T20:23:17.160Z,4.93
2023-04-17T20:25:44.236Z,4.33
2023-04-17T20:28:11.377Z,5.03
2023-04-17T20:30:38.437Z,4.90
2023-04-17T20:33:05.641Z,4.97
2023-04-17T20:35:32.840Z,5.53
2023-04-17T20:37:59.913Z,5.53
2023-04-17T20:40:26.960Z,5.93
2023-04-17T20:42:54.021Z,5.77
2023-04-17T20:45:21.209Z,6.13
2023-04-17T20:50:19.447Z,6.43
2023-04-17T20:52:46.514Z,6.47
2023-04-17T20:55:13.541Z,6.40
2023-04-17T20:57:40.858Z,5.63
2023-04-17T21:00:08.216Z,6.03
2023-04-17T21:02:35.431Z,6.00
2023-04-17T21:05:02.572Z,6.20
2023-04-17T21:07:30.496Z,5.83
2023-04-17T21:09:57.560Z,6.23
2023-04-17T21:12:24.644Z,6.27
2023-04-17T21:14:51.698Z,5.43
2023-04-17T21:17:18.765Z,6.33
2023-04-17T21:19:46.094Z,6.07
2023-04-17T21:22:13.240Z,6.10
2023-04-17T21:24:40.350Z,5.60
2023-04-17T21:27:07.412Z,5.97
2023-04-17T21:29:34.652Z,6.33
2023-04-17T21:32:01.935Z,5.23
2023-04-17T21:34:29.134Z,5.30
2023-04-17T21:36:56.149Z,5.40
2023-04-17T21:39:23.206Z,6.13
2023-04-17T21:41:49.890Z,5.17
2023-04-17T21:44:16.969Z,5.27
2023-04-17T21:46:45.123Z,5.33
2023-04-17T21:49:12.438Z,5.63
2023-04-17T21:51:39.566Z,5.80
2023-04-17T21:54:06.612Z,5.47
2023-04-17T21:56:33.263Z,5.27
2023-04-17T21:59:00.947Z,5.30
2023-04-17T22:01:28.365Z,5.37
2023-04-17T22:03:55.164Z,4.70
2023-04-17T22:06:22.495Z,5.33
2023-04-17T22:08:49.573Z,4.37
2023-04-17T22:11:16.661Z,4.93
2023-04-17T22:13:44.893Z,4.53
2023-04-17T22:16:12.058Z,4.90
2023-04-17T22:18:39.160Z,4.07
2023-04-17T22:21:06.366Z,4.23
2023-04-17T22:23:33.421Z,3.90
2023-04-17T22:26:00.743Z,4.17
2023-04-17T22:28:31.237Z,4.47
2023-04-17T22:30:58.761Z,4.00
2023-04-17T22:33:26.089Z,3.73
2023-04-17T22:35:53.207Z,4.37
2023-04-17T22:38:23.244Z,4.20
2023-04-17T22:40:50.290Z,3.50
2023-04-17T22:43:17.355Z,3.70
2023-04-17T22:45:43.953Z,3.60
2023-04-17T22:48:11.103Z,3.50
2023-04-17T22:50:38.379Z,3.63
2023-04-17T22:53:05.748Z,3.13
2023-04-17T22:55:33.232Z,3.23
2023-04-17T22:58:01.519Z,3.60
2023-04-17T23:00:28.582Z,3.93
2023-04-17T23:02:55.815Z,3.77
2023-04-17T23:05:22.496Z,3.20
2023-04-17T23:07:49.724Z,3.50
2023-04-17T23:10:16.459Z,3.63
2023-04-17T23:12:43.068Z,3.40
2023-04-17T23:15:10.499Z,3.77
2023-04-17T23:17:37.588Z,3.73
2023-04-17T23:20:04.896Z,3.13
2023-04-17T23:22:31.974Z,3.67
2023-04-17T23:24:59.084Z,2.97
2023-04-17T23:27:26.378Z,3.03
2023-04-17T23:29:53.424Z,3.60
2023-04-17T23:32:20.512Z,3.00
2023-04-17T23:34:47.615Z,3.10
2023-04-17T23:37:14.936Z,3.43
2023-04-17T23:39:42.655Z,3.63
2023-04-17T23:42:09.988Z,2.97
2023-04-17T23:44:37.068Z,3.13
2023-04-17T23:47:04.594Z,3.20
2023-04-17T23:49:31.734Z,3.47
2023-04-17T23:51:58.774Z,2.80
2023-04-17T23:54:25.378Z,3.47
2023-04-17T23:56:52.438Z,3.53
2023-04-17T23:59:19.557Z,3.00
